Terminal Aerodrome Forecast
Issued by NWS

Home | Current Version | Previous Version | Text Only | Print | Product List | Glossary On
Versions: 1 2 3 4 5 6 7 8 9 10 11 12 13 14 15 16 17 18 19 20 21 22
000
FTUS44 KBMX 011739
TAFANB
TAF
KANB 011739Z 0118/0218 25009KT P6SM VCTS BKN040CB
     FM020200 23005KT P6SM OVC200
     FM020600 24006KT P6SM VCTS BKN050CB=

USA.gov is the U.S. government's official web portal to all federal, state and local government web resources and services.